Buffalo Hart, Illinois
Current Conditions -  °F | °C
As of 7:52 PM on Monday 20 Oct 2014 (Local Time) from KSPI Reporting Station
Clear Clear  
Wind Chill: 55°   Ceiling: Unl
Heat Index: 55°   Visibility: 10mi
Dew Point: 44°   Wind: 5mph
Humidity: 67%   Direction: 290°WNW
Pressure: 29.98"   Gusts: NA
Location:  39.8448°N, 89.3474°W
Report Text: KSPI 210052Z 29004KT 10SM CLR 13/07 A2998 RMK AO2 SLP154 T01280067
Loading
Personal Weather Stations






























Interactive Weather Map
Tropical Storm Tracking
New forecast layout! Learn more

10-Day Weather Forecast

Advertisements
Track Severe Weather on mobile